sensor_id;sensor_type;location;lat;lon;timestamp;P1;durP1;ratioP1;P2;durP2;ratioP2
73487;SDS011;61721;42.206;25.320;2023-07-29T00:00:00;2.90;;;1.27;;
73487;SDS011;61721;42.206;25.320;2023-07-29T00:02:28;5.00;;;1.45;;
73487;SDS011;61721;42.206;25.320;2023-07-29T00:04:57;4.10;;;1.42;;
73487;SDS011;61721;42.206;25.320;2023-07-29T00:07:24;3.35;;;1.23;;
73487;SDS011;61721;42.206;25.320;2023-07-29T00:09:53;4.80;;;1.40;;
73487;SDS011;61721;42.206;25.320;2023-07-29T00:12:20;3.90;;;1.30;;
73487;SDS011;61721;42.206;25.320;2023-07-29T00:14:47;3.15;;;1.42;;
73487;SDS011;61721;42.206;25.320;2023-07-29T00:17:14;4.20;;;1.40;;
73487;SDS011;61721;42.206;25.320;2023-07-29T00:19:41;3.10;;;1.33;;
73487;SDS011;61721;42.206;25.320;2023-07-29T00:22:08;3.10;;;1.23;;
73487;SDS011;61721;42.206;25.320;2023-07-29T00:24:35;3.88;;;1.23;;
73487;SDS011;61721;42.206;25.320;2023-07-29T00:27:04;3.28;;;1.20;;
73487;SDS011;61721;42.206;25.320;2023-07-29T00:29:32;3.38;;;1.40;;
73487;SDS011;61721;42.206;25.320;2023-07-29T00:32:00;4.10;;;1.35;;
73487;SDS011;61721;42.206;25.320;2023-07-29T00:34:28;3.28;;;1.40;;
73487;SDS011;61721;42.206;25.320;2023-07-29T00:36:56;3.97;;;1.50;;
73487;SDS011;61721;42.206;25.320;2023-07-29T00:39:23;2.92;;;1.33;;
73487;SDS011;61721;42.206;25.320;2023-07-29T00:41:51;3.10;;;1.38;;
73487;SDS011;61721;42.206;25.320;2023-07-29T00:44:19;4.28;;;1.38;;
73487;SDS011;61721;42.206;25.320;2023-07-29T00:46:46;3.13;;;1.25;;
73487;SDS011;61721;42.206;25.320;2023-07-29T00:49:16;4.55;;;1.38;;
73487;SDS011;61721;42.206;25.320;2023-07-29T00:51:44;4.70;;;1.27;;
73487;SDS011;61721;42.206;25.320;2023-07-29T00:54:13;3.72;;;1.38;;
73487;SDS011;61721;42.206;25.320;2023-07-29T00:56:40;3.72;;;1.40;;
73487;SDS011;61721;42.206;25.320;2023-07-29T00:59:07;3.30;;;1.30;;
73487;SDS011;61721;42.206;25.320;2023-07-29T01:01:36;4.20;;;1.42;;
73487;SDS011;61721;42.206;25.320;2023-07-29T01:04:03;2.97;;;1.20;;
73487;SDS011;61721;42.206;25.320;2023-07-29T01:06:34;3.00;;;1.25;;
73487;SDS011;61721;42.206;25.320;2023-07-29T01:09:08;2.53;;;1.13;;
73487;SDS011;61721;42.206;25.320;2023-07-29T01:11:41;4.93;;;1.45;;
73487;SDS011;61721;42.206;25.320;2023-07-29T01:14:18;3.47;;;1.45;;
73487;SDS011;61721;42.206;25.320;2023-07-29T01:16:55;3.47;;;1.25;;
73487;SDS011;61721;42.206;25.320;2023-07-29T01:19:37;3.13;;;1.30;;
73487;SDS011;61721;42.206;25.320;2023-07-29T01:22:14;3.97;;;1.38;;
73487;SDS011;61721;42.206;25.320;2023-07-29T01:24:44;4.10;;;1.42;;
73487;SDS011;61721;42.206;25.320;2023-07-29T01:27:11;3.70;;;1.42;;
73487;SDS011;61721;42.206;25.320;2023-07-29T01:29:38;3.13;;;1.27;;
73487;SDS011;61721;42.206;25.320;2023-07-29T01:32:07;3.03;;;1.38;;
73487;SDS011;61721;42.206;25.320;2023-07-29T01:34:41;2.80;;;1.20;;
73487;SDS011;61721;42.206;25.320;2023-07-29T01:37:15;3.22;;;1.50;;
73487;SDS011;61721;42.206;25.320;2023-07-29T01:39:50;5.63;;;1.45;;
73487;SDS011;61721;42.206;25.320;2023-07-29T01:42:21;4.75;;;1.38;;
73487;SDS011;61721;42.206;25.320;2023-07-29T01:44:51;4.00;;;1.40;;
73487;SDS011;61721;42.206;25.320;2023-07-29T01:47:18;4.35;;;1.42;;
73487;SDS011;61721;42.206;25.320;2023-07-29T01:49:45;5.18;;;1.83;;
73487;SDS011;61721;42.206;25.320;2023-07-29T01:52:12;4.15;;;1.45;;
73487;SDS011;61721;42.206;25.320;2023-07-29T01:54:40;3.88;;;1.48;;
73487;SDS011;61721;42.206;25.320;2023-07-29T01:57:08;5.70;;;1.30;;
73487;SDS011;61721;42.206;25.320;2023-07-29T01:59:35;3.22;;;1.50;;
73487;SDS011;61721;42.206;25.320;2023-07-29T02:02:02;4.45;;;1.70;;
73487;SDS011;61721;42.206;25.320;2023-07-29T02:04:30;3.72;;;1.60;;
73487;SDS011;61721;42.206;25.320;2023-07-29T02:06:57;5.15;;;2.17;;
73487;SDS011;61721;42.206;25.320;2023-07-29T02:09:24;4.68;;;2.00;;
73487;SDS011;61721;42.206;25.320;2023-07-29T02:11:52;5.22;;;1.85;;
73487;SDS011;61721;42.206;25.320;2023-07-29T02:14:21;5.22;;;1.90;;
73487;SDS011;61721;42.206;25.320;2023-07-29T02:16:48;5.20;;;1.98;;
73487;SDS011;61721;42.206;25.320;2023-07-29T02:19:15;5.45;;;1.80;;
73487;SDS011;61721;42.206;25.320;2023-07-29T02:21:42;3.80;;;1.50;;
73487;SDS011;61721;42.206;25.320;2023-07-29T02:24:10;5.30;;;1.88;;
73487;SDS011;61721;42.206;25.320;2023-07-29T02:26:37;6.25;;;1.90;;
73487;SDS011;61721;42.206;25.320;2023-07-29T02:29:04;4.43;;;1.73;;
73487;SDS011;61721;42.206;25.320;2023-07-29T02:31:32;4.28;;;1.90;;
73487;SDS011;61721;42.206;25.320;2023-07-29T02:34:02;5.57;;;1.80;;
73487;SDS011;61721;42.206;25.320;2023-07-29T02:36:29;3.88;;;1.60;;
73487;SDS011;61721;42.206;25.320;2023-07-29T02:38:56;4.10;;;1.60;;
73487;SDS011;61721;42.206;25.320;2023-07-29T02:41:24;3.13;;;1.52;;
73487;SDS011;61721;42.206;25.320;2023-07-29T02:43:51;3.88;;;2.00;;
73487;SDS011;61721;42.206;25.320;2023-07-29T02:46:18;4.95;;;1.80;;
73487;SDS011;61721;42.206;25.320;2023-07-29T02:48:47;3.95;;;1.75;;
73487;SDS011;61721;42.206;25.320;2023-07-29T02:51:14;3.63;;;1.70;;
73487;SDS011;61721;42.206;25.320;2023-07-29T02:53:41;3.60;;;1.70;;
73487;SDS011;61721;42.206;25.320;2023-07-29T02:56:08;9.23;;;2.20;;
73487;SDS011;61721;42.206;25.320;2023-07-29T02:58:36;4.43;;;1.75;;
73487;SDS011;61721;42.206;25.320;2023-07-29T03:01:04;3.95;;;1.90;;
73487;SDS011;61721;42.206;25.320;2023-07-29T03:03:32;6.70;;;2.17;;
73487;SDS011;61721;42.206;25.320;2023-07-29T03:06:01;3.85;;;1.63;;
73487;SDS011;61721;42.206;25.320;2023-07-29T03:10:57;4.28;;;2.03;;
73487;SDS011;61721;42.206;25.320;2023-07-29T03:13:25;6.97;;;1.83;;
73487;SDS011;61721;42.206;25.320;2023-07-29T03:15:52;12.52;;;2.35;;
73487;SDS011;61721;42.206;25.320;2023-07-29T03:18:19;5.15;;;1.73;;
73487;SDS011;61721;42.206;25.320;2023-07-29T03:20:46;6.07;;;1.90;;
73487;SDS011;61721;42.206;25.320;2023-07-29T03:23:17;4.05;;;1.88;;
73487;SDS011;61721;42.206;25.320;2023-07-29T03:25:44;5.75;;;1.83;;
73487;SDS011;61721;42.206;25.320;2023-07-29T03:28:16;8.13;;;2.35;;
73487;SDS011;61721;42.206;25.320;2023-07-29T03:30:45;5.95;;;2.03;;
73487;SDS011;61721;42.206;25.320;2023-07-29T03:33:12;4.30;;;1.92;;
73487;SDS011;61721;42.206;25.320;2023-07-29T03:35:39;6.88;;;1.92;;
73487;SDS011;61721;42.206;25.320;2023-07-29T03:38:09;4.32;;;1.92;;
73487;SDS011;61721;42.206;25.320;2023-07-29T03:40:44;4.78;;;2.08;;
73487;SDS011;61721;42.206;25.320;2023-07-29T03:43:12;6.25;;;1.83;;
73487;SDS011;61721;42.206;25.320;2023-07-29T03:45:40;4.85;;;1.80;;
73487;SDS011;61721;42.206;25.320;2023-07-29T03:48:07;16.80;;;2.78;;
73487;SDS011;61721;42.206;25.320;2023-07-29T03:50:35;5.32;;;2.03;;
73487;SDS011;61721;42.206;25.320;2023-07-29T03:53:03;9.68;;;1.88;;
73487;SDS011;61721;42.206;25.320;2023-07-29T03:55:30;7.00;;;1.90;;
73487;SDS011;61721;42.206;25.320;2023-07-29T03:57:59;3.95;;;1.73;;
73487;SDS011;61721;42.206;25.320;2023-07-29T04:00:27;4.80;;;1.98;;
73487;SDS011;61721;42.206;25.320;2023-07-29T04:02:55;4.18;;;2.03;;
73487;SDS011;61721;42.206;25.320;2023-07-29T04:05:22;3.88;;;1.70;;
73487;SDS011;61721;42.206;25.320;2023-07-29T04:07:49;5.07;;;1.80;;
73487;SDS011;61721;42.206;25.320;2023-07-29T04:10:16;3.92;;;1.80;;
73487;SDS011;61721;42.206;25.320;2023-07-29T04:12:43;7.63;;;1.83;;
73487;SDS011;61721;42.206;25.320;2023-07-29T04:15:12;4.25;;;1.80;;
73487;SDS011;61721;42.206;25.320;2023-07-29T04:20:13;4.50;;;1.92;;
73487;SDS011;61721;42.206;25.320;2023-07-29T04:22:40;6.45;;;2.17;;
73487;SDS011;61721;42.206;25.320;2023-07-29T04:25:08;7.72;;;2.17;;
73487;SDS011;61721;42.206;25.320;2023-07-29T04:27:35;4.38;;;2.00;;
73487;SDS011;61721;42.206;25.320;2023-07-29T04:30:02;5.82;;;1.58;;
73487;SDS011;61721;42.206;25.320;2023-07-29T04:32:32;5.18;;;1.55;;
73487;SDS011;61721;42.206;25.320;2023-07-29T04:34:59;3.95;;;1.70;;
73487;SDS011;61721;42.206;25.320;2023-07-29T04:37:26;7.75;;;2.00;;
73487;SDS011;61721;42.206;25.320;2023-07-29T04:39:53;6.28;;;1.90;;
73487;SDS011;61721;42.206;25.320;2023-07-29T04:42:20;6.55;;;2.35;;
73487;SDS011;61721;42.206;25.320;2023-07-29T04:44:48;4.70;;;1.80;;
73487;SDS011;61721;42.206;25.320;2023-07-29T04:47:15;7.90;;;1.95;;
73487;SDS011;61721;42.206;25.320;2023-07-29T04:49:44;7.07;;;1.85;;
73487;SDS011;61721;42.206;25.320;2023-07-29T04:52:11;12.57;;;2.10;;
73487;SDS011;61721;42.206;25.320;2023-07-29T04:54:40;13.05;;;2.10;;
73487;SDS011;61721;42.206;25.320;2023-07-29T04:57:07;7.28;;;1.60;;
73487;SDS011;61721;42.206;25.320;2023-07-29T04:59:34;9.15;;;1.90;;
73487;SDS011;61721;42.206;25.320;2023-07-29T05:02:01;7.10;;;2.00;;
73487;SDS011;61721;42.206;25.320;2023-07-29T05:04:29;7.85;;;1.70;;
73487;SDS011;61721;42.206;25.320;2023-07-29T05:06:58;5.28;;;1.80;;
73487;SDS011;61721;42.206;25.320;2023-07-29T05:09:25;4.93;;;1.85;;
73487;SDS011;61721;42.206;25.320;2023-07-29T05:11:52;13.45;;;2.53;;
73487;SDS011;61721;42.206;25.320;2023-07-29T05:14:19;5.65;;;2.20;;
73487;SDS011;61721;42.206;25.320;2023-07-29T05:16:46;6.28;;;1.80;;
73487;SDS011;61721;42.206;25.320;2023-07-29T05:19:13;4.65;;;2.38;;
73487;SDS011;61721;42.206;25.320;2023-07-29T05:21:40;5.45;;;2.03;;
73487;SDS011;61721;42.206;25.320;2023-07-29T05:24:09;7.75;;;2.40;;
73487;SDS011;61721;42.206;25.320;2023-07-29T05:26:36;6.82;;;1.80;;
73487;SDS011;61721;42.206;25.320;2023-07-29T05:29:03;7.65;;;2.40;;
73487;SDS011;61721;42.206;25.320;2023-07-29T05:31:32;5.53;;;2.25;;
73487;SDS011;61721;42.206;25.320;2023-07-29T05:33:59;4.60;;;2.08;;
73487;SDS011;61721;42.206;25.320;2023-07-29T05:36:27;7.40;;;2.40;;
73487;SDS011;61721;42.206;25.320;2023-07-29T05:41:26;6.68;;;2.50;;
73487;SDS011;61721;42.206;25.320;2023-07-29T05:43:54;9.75;;;2.00;;
73487;SDS011;61721;42.206;25.320;2023-07-29T05:48:51;3.75;;;1.95;;
73487;SDS011;61721;42.206;25.320;2023-07-29T05:51:18;6.03;;;1.90;;
73487;SDS011;61721;42.206;25.320;2023-07-29T05:53:45;3.92;;;1.85;;
73487;SDS011;61721;42.206;25.320;2023-07-29T05:56:13;4.03;;;1.90;;
73487;SDS011;61721;42.206;25.320;2023-07-29T05:58:43;7.80;;;2.20;;
73487;SDS011;61721;42.206;25.320;2023-07-29T06:01:10;3.97;;;1.70;;
73487;SDS011;61721;42.206;25.320;2023-07-29T06:03:37;6.90;;;1.85;;
73487;SDS011;61721;42.206;25.320;2023-07-29T06:06:05;4.43;;;1.88;;
73487;SDS011;61721;42.206;25.320;2023-07-29T06:08:32;5.70;;;1.83;;
73487;SDS011;61721;42.206;25.320;2023-07-29T06:11:01;4.03;;;1.67;;
73487;SDS011;61721;42.206;25.320;2023-07-29T06:15:59;4.20;;;1.75;;
73487;SDS011;61721;42.206;25.320;2023-07-29T06:18:27;3.60;;;1.70;;
73487;SDS011;61721;42.206;25.320;2023-07-29T06:23:33;6.45;;;1.65;;
73487;SDS011;61721;42.206;25.320;2023-07-29T06:26:01;7.65;;;1.85;;
73487;SDS011;61721;42.206;25.320;2023-07-29T06:28:28;6.10;;;2.33;;
73487;SDS011;61721;42.206;25.320;2023-07-29T06:30:55;8.60;;;2.00;;
73487;SDS011;61721;42.206;25.320;2023-07-29T06:33:24;8.32;;;2.05;;
73487;SDS011;61721;42.206;25.320;2023-07-29T06:35:51;5.30;;;1.90;;
73487;SDS011;61721;42.206;25.320;2023-07-29T06:38:18;5.88;;;1.92;;
73487;SDS011;61721;42.206;25.320;2023-07-29T06:40:47;5.10;;;1.85;;
73487;SDS011;61721;42.206;25.320;2023-07-29T06:43:14;6.05;;;1.70;;
73487;SDS011;61721;42.206;25.320;2023-07-29T06:45:41;5.22;;;1.60;;
73487;SDS011;61721;42.206;25.320;2023-07-29T06:48:08;6.03;;;1.70;;
73487;SDS011;61721;42.206;25.320;2023-07-29T06:50:37;4.35;;;1.83;;
73487;SDS011;61721;42.206;25.320;2023-07-29T06:53:04;7.18;;;1.90;;
73487;SDS011;61721;42.206;25.320;2023-07-29T06:55:32;5.22;;;2.20;;
73487;SDS011;61721;42.206;25.320;2023-07-29T06:58:00;5.07;;;1.70;;
73487;SDS011;61721;42.206;25.320;2023-07-29T07:00:28;3.92;;;1.88;;
73487;SDS011;61721;42.206;25.320;2023-07-29T07:02:55;4.40;;;1.80;;
73487;SDS011;61721;42.206;25.320;2023-07-29T07:05:22;5.35;;;1.90;;
73487;SDS011;61721;42.206;25.320;2023-07-29T07:07:51;5.13;;;2.00;;
73487;SDS011;61721;42.206;25.320;2023-07-29T07:10:18;3.67;;;1.70;;
73487;SDS011;61721;42.206;25.320;2023-07-29T07:12:45;3.97;;;1.92;;
73487;SDS011;61721;42.206;25.320;2023-07-29T07:15:13;4.32;;;1.88;;
73487;SDS011;61721;42.206;25.320;2023-07-29T07:17:41;4.00;;;1.90;;
73487;SDS011;61721;42.206;25.320;2023-07-29T07:20:08;3.67;;;1.90;;
73487;SDS011;61721;42.206;25.320;2023-07-29T07:22:36;3.50;;;1.77;;
73487;SDS011;61721;42.206;25.320;2023-07-29T07:25:06;5.55;;;2.20;;
73487;SDS011;61721;42.206;25.320;2023-07-29T07:27:34;4.10;;;1.80;;
73487;SDS011;61721;42.206;25.320;2023-07-29T07:30:01;7.25;;;2.00;;
73487;SDS011;61721;42.206;25.320;2023-07-29T07:32:28;3.70;;;1.88;;
73487;SDS011;61721;42.206;25.320;2023-07-29T07:34:55;5.20;;;1.88;;
73487;SDS011;61721;42.206;25.320;2023-07-29T07:37:25;4.40;;;1.70;;
73487;SDS011;61721;42.206;25.320;2023-07-29T07:39:52;10.52;;;2.10;;
73487;SDS011;61721;42.206;25.320;2023-07-29T07:42:20;4.70;;;1.95;;
73487;SDS011;61721;42.206;25.320;2023-07-29T07:44:47;6.03;;;1.80;;
73487;SDS011;61721;42.206;25.320;2023-07-29T07:47:14;6.30;;;1.90;;
73487;SDS011;61721;42.206;25.320;2023-07-29T07:49:41;4.22;;;1.88;;
73487;SDS011;61721;42.206;25.320;2023-07-29T07:52:08;3.70;;;1.83;;
73487;SDS011;61721;42.206;25.320;2023-07-29T07:54:36;3.95;;;2.08;;
73487;SDS011;61721;42.206;25.320;2023-07-29T07:57:03;3.90;;;1.92;;
73487;SDS011;61721;42.206;25.320;2023-07-29T07:59:32;5.18;;;2.25;;
73487;SDS011;61721;42.206;25.320;2023-07-29T08:01:59;5.80;;;2.38;;
73487;SDS011;61721;42.206;25.320;2023-07-29T08:04:26;5.30;;;2.55;;
73487;SDS011;61721;42.206;25.320;2023-07-29T08:06:56;4.75;;;2.20;;
73487;SDS011;61721;42.206;25.320;2023-07-29T08:09:24;4.82;;;2.10;;
73487;SDS011;61721;42.206;25.320;2023-07-29T08:11:51;5.07;;;1.73;;
73487;SDS011;61721;42.206;25.320;2023-07-29T08:14:18;7.85;;;2.10;;
73487;SDS011;61721;42.206;25.320;2023-07-29T08:16:46;4.70;;;2.08;;
73487;SDS011;61721;42.206;25.320;2023-07-29T08:19:14;5.55;;;2.03;;
73487;SDS011;61721;42.206;25.320;2023-07-29T08:21:41;6.85;;;2.90;;
73487;SDS011;61721;42.206;25.320;2023-07-29T08:24:08;4.85;;;2.00;;
73487;SDS011;61721;42.206;25.320;2023-07-29T08:26:35;4.15;;;2.10;;
73487;SDS011;61721;42.206;25.320;2023-07-29T08:29:02;4.10;;;2.13;;
73487;SDS011;61721;42.206;25.320;2023-07-29T08:31:29;4.22;;;2.03;;
73487;SDS011;61721;42.206;25.320;2023-07-29T08:34:01;5.15;;;2.03;;
73487;SDS011;61721;42.206;25.320;2023-07-29T08:36:28;4.63;;;1.92;;
73487;SDS011;61721;42.206;25.320;2023-07-29T08:38:55;4.22;;;2.20;;
73487;SDS011;61721;42.206;25.320;2023-07-29T08:41:25;6.45;;;1.85;;
73487;SDS011;61721;42.206;25.320;2023-07-29T08:43:58;4.13;;;1.88;;
73487;SDS011;61721;42.206;25.320;2023-07-29T08:46:33;4.85;;;1.88;;
73487;SDS011;61721;42.206;25.320;2023-07-29T08:49:02;3.80;;;2.00;;
73487;SDS011;61721;42.206;25.320;2023-07-29T08:51:29;3.97;;;1.77;;
73487;SDS011;61721;42.206;25.320;2023-07-29T08:53:58;4.05;;;1.60;;
73487;SDS011;61721;42.206;25.320;2023-07-29T08:56:26;5.53;;;1.90;;
73487;SDS011;61721;42.206;25.320;2023-07-29T08:58:55;4.38;;;1.88;;
73487;SDS011;61721;42.206;25.320;2023-07-29T09:01:24;3.85;;;1.70;;
73487;SDS011;61721;42.206;25.320;2023-07-29T09:03:51;3.15;;;1.65;;
73487;SDS011;61721;42.206;25.320;2023-07-29T09:06:20;4.30;;;1.48;;
73487;SDS011;61721;42.206;25.320;2023-07-29T09:08:48;4.40;;;1.63;;
73487;SDS011;61721;42.206;25.320;2023-07-29T09:11:17;3.00;;;1.52;;
73487;SDS011;61721;42.206;25.320;2023-07-29T09:13:44;4.22;;;1.77;;
73487;SDS011;61721;42.206;25.320;2023-07-29T09:16:12;3.75;;;1.67;;
73487;SDS011;61721;42.206;25.320;2023-07-29T09:18:39;3.72;;;1.58;;
73487;SDS011;61721;42.206;25.320;2023-07-29T09:21:07;3.30;;;1.65;;
73487;SDS011;61721;42.206;25.320;2023-07-29T09:23:39;3.75;;;1.65;;
73487;SDS011;61721;42.206;25.320;2023-07-29T09:26:07;3.75;;;1.60;;
73487;SDS011;61721;42.206;25.320;2023-07-29T09:28:35;3.90;;;1.40;;
73487;SDS011;61721;42.206;25.320;2023-07-29T09:31:03;4.00;;;1.67;;
73487;SDS011;61721;42.206;25.320;2023-07-29T09:33:33;3.67;;;1.70;;
73487;SDS011;61721;42.206;25.320;2023-07-29T09:36:02;3.10;;;1.55;;
73487;SDS011;61721;42.206;25.320;2023-07-29T09:38:37;4.38;;;1.70;;
73487;SDS011;61721;42.206;25.320;2023-07-29T09:41:11;5.00;;;1.75;;
73487;SDS011;61721;42.206;25.320;2023-07-29T09:43:40;5.43;;;1.77;;
73487;SDS011;61721;42.206;25.320;2023-07-29T09:46:07;4.18;;;1.50;;
73487;SDS011;61721;42.206;25.320;2023-07-29T09:48:36;6.93;;;1.77;;
73487;SDS011;61721;42.206;25.320;2023-07-29T09:51:13;4.72;;;1.60;;
73487;SDS011;61721;42.206;25.320;2023-07-29T09:53:44;4.65;;;1.60;;
73487;SDS011;61721;42.206;25.320;2023-07-29T09:56:18;3.70;;;1.50;;
73487;SDS011;61721;42.206;25.320;2023-07-29T09:58:52;3.28;;;1.50;;
73487;SDS011;61721;42.206;25.320;2023-07-29T10:01:19;4.38;;;1.50;;
73487;SDS011;61721;42.206;25.320;2023-07-29T10:03:47;4.10;;;1.40;;
73487;SDS011;61721;42.206;25.320;2023-07-29T10:06:15;4.78;;;1.63;;
73487;SDS011;61721;42.206;25.320;2023-07-29T10:11:14;4.05;;;1.40;;
73487;SDS011;61721;42.206;25.320;2023-07-29T10:13:42;3.70;;;1.60;;
73487;SDS011;61721;42.206;25.320;2023-07-29T10:16:09;3.45;;;1.52;;
73487;SDS011;61721;42.206;25.320;2023-07-29T10:18:37;2.90;;;1.50;;
73487;SDS011;61721;42.206;25.320;2023-07-29T10:21:05;3.45;;;1.58;;
73487;SDS011;61721;42.206;25.320;2023-07-29T10:23:34;3.35;;;1.60;;
73487;SDS011;61721;42.206;25.320;2023-07-29T10:26:11;3.20;;;1.50;;
73487;SDS011;61721;42.206;25.320;2023-07-29T10:28:44;4.70;;;1.60;;
73487;SDS011;61721;42.206;25.320;2023-07-29T10:31:15;3.95;;;1.45;;
73487;SDS011;61721;42.206;25.320;2023-07-29T10:33:48;4.38;;;1.55;;
73487;SDS011;61721;42.206;25.320;2023-07-29T10:36:16;3.75;;;1.52;;
73487;SDS011;61721;42.206;25.320;2023-07-29T10:38:44;6.03;;;1.73;;
73487;SDS011;61721;42.206;25.320;2023-07-29T10:41:13;2.85;;;1.40;;
73487;SDS011;61721;42.206;25.320;2023-07-29T10:43:41;3.10;;;1.48;;
73487;SDS011;61721;42.206;25.320;2023-07-29T10:46:14;4.60;;;1.73;;
73487;SDS011;61721;42.206;25.320;2023-07-29T10:48:43;3.47;;;1.50;;
73487;SDS011;61721;42.206;25.320;2023-07-29T10:51:22;3.60;;;1.35;;
73487;SDS011;61721;42.206;25.320;2023-07-29T10:53:55;2.70;;;1.20;;
73487;SDS011;61721;42.206;25.320;2023-07-29T10:56:31;2.78;;;1.20;;
73487;SDS011;61721;42.206;25.320;2023-07-29T10:59:02;3.42;;;1.38;;
73487;SDS011;61721;42.206;25.320;2023-07-29T11:01:59;3.05;;;1.40;;
73487;SDS011;61721;42.206;25.320;2023-07-29T11:04:28;4.43;;;1.40;;
73487;SDS011;61721;42.206;25.320;2023-07-29T11:09:58;3.42;;;1.50;;
73487;SDS011;61721;42.206;25.320;2023-07-29T11:12:38;4.18;;;1.65;;
73487;SDS011;61721;42.206;25.320;2023-07-29T11:15:14;3.55;;;1.50;;
73487;SDS011;61721;42.206;25.320;2023-07-29T11:17:46;3.50;;;1.70;;
73487;SDS011;61721;42.206;25.320;2023-07-29T11:22:42;4.68;;;1.52;;
73487;SDS011;61721;42.206;25.320;2023-07-29T11:25:10;3.30;;;1.42;;
73487;SDS011;61721;42.206;25.320;2023-07-29T11:27:39;3.40;;;1.30;;
73487;SDS011;61721;42.206;25.320;2023-07-29T11:30:07;3.78;;;1.48;;
73487;SDS011;61721;42.206;25.320;2023-07-29T11:32:36;4.70;;;1.88;;
73487;SDS011;61721;42.206;25.320;2023-07-29T11:35:04;3.72;;;1.40;;
73487;SDS011;61721;42.206;25.320;2023-07-29T11:37:35;2.95;;;1.25;;
73487;SDS011;61721;42.206;25.320;2023-07-29T11:40:03;3.38;;;1.27;;
73487;SDS011;61721;42.206;25.320;2023-07-29T11:42:32;3.60;;;1.50;;
73487;SDS011;61721;42.206;25.320;2023-07-29T11:45:01;4.10;;;1.67;;
73487;SDS011;61721;42.206;25.320;2023-07-29T11:47:31;3.80;;;1.48;;
73487;SDS011;61721;42.206;25.320;2023-07-29T11:50:00;4.00;;;1.50;;
73487;SDS011;61721;42.206;25.320;2023-07-29T11:52:29;3.05;;;1.45;;
73487;SDS011;61721;42.206;25.320;2023-07-29T11:54:58;3.95;;;1.42;;
73487;SDS011;61721;42.206;25.320;2023-07-29T11:57:27;3.45;;;1.55;;
73487;SDS011;61721;42.206;25.320;2023-07-29T11:59:54;3.22;;;1.40;;
73487;SDS011;61721;42.206;25.320;2023-07-29T12:02:23;3.35;;;1.40;;
73487;SDS011;61721;42.206;25.320;2023-07-29T12:04:52;5.20;;;1.55;;
73487;SDS011;61721;42.206;25.320;2023-07-29T12:07:19;3.50;;;1.20;;
73487;SDS011;61721;42.206;25.320;2023-07-29T12:09:47;2.83;;;1.30;;
73487;SDS011;61721;42.206;25.320;2023-07-29T12:12:15;3.20;;;1.40;;
73487;SDS011;61721;42.206;25.320;2023-07-29T12:14:43;5.75;;;1.40;;
73487;SDS011;61721;42.206;25.320;2023-07-29T12:17:14;3.42;;;1.50;;
73487;SDS011;61721;42.206;25.320;2023-07-29T12:19:53;3.47;;;1.50;;
73487;SDS011;61721;42.206;25.320;2023-07-29T12:22:23;3.42;;;1.48;;
73487;SDS011;61721;42.206;25.320;2023-07-29T12:24:51;22.83;;;2.88;;
73487;SDS011;61721;42.206;25.320;2023-07-29T12:27:19;5.13;;;1.30;;
73487;SDS011;61721;42.206;25.320;2023-07-29T12:29:48;2.83;;;1.30;;
73487;SDS011;61721;42.206;25.320;2023-07-29T12:32:18;4.32;;;1.45;;
73487;SDS011;61721;42.206;25.320;2023-07-29T12:34:45;3.70;;;1.40;;
73487;SDS011;61721;42.206;25.320;2023-07-29T12:37:14;3.88;;;1.40;;
73487;SDS011;61721;42.206;25.320;2023-07-29T12:39:41;2.95;;;1.42;;
73487;SDS011;61721;42.206;25.320;2023-07-29T12:42:08;5.75;;;1.30;;
73487;SDS011;61721;42.206;25.320;2023-07-29T12:44:36;3.50;;;1.42;;
73487;SDS011;61721;42.206;25.320;2023-07-29T12:47:05;4.80;;;1.45;;
73487;SDS011;61721;42.206;25.320;2023-07-29T12:52:01;3.55;;;1.55;;
73487;SDS011;61721;42.206;25.320;2023-07-29T12:54:29;4.43;;;1.38;;
73487;SDS011;61721;42.206;25.320;2023-07-29T12:56:56;3.58;;;1.45;;
73487;SDS011;61721;42.206;25.320;2023-07-29T12:59:23;9.13;;;1.73;;
73487;SDS011;61721;42.206;25.320;2023-07-29T13:01:52;3.03;;;1.23;;
73487;SDS011;61721;42.206;25.320;2023-07-29T13:04:19;3.08;;;1.40;;
73487;SDS011;61721;42.206;25.320;2023-07-29T13:06:48;6.00;;;1.55;;
73487;SDS011;61721;42.206;25.320;2023-07-29T13:09:24;3.50;;;1.38;;
73487;SDS011;61721;42.206;25.320;2023-07-29T13:11:53;5.53;;;1.60;;
73487;SDS011;61721;42.206;25.320;2023-07-29T13:14:21;3.92;;;1.50;;
73487;SDS011;61721;42.206;25.320;2023-07-29T13:16:56;3.97;;;1.20;;
73487;SDS011;61721;42.206;25.320;2023-07-29T13:19:23;3.95;;;1.50;;
73487;SDS011;61721;42.206;25.320;2023-07-29T13:21:50;2.88;;;1.30;;
73487;SDS011;61721;42.206;25.320;2023-07-29T13:24:17;2.63;;;1.20;;
73487;SDS011;61721;42.206;25.320;2023-07-29T13:26:44;3.40;;;1.27;;
73487;SDS011;61721;42.206;25.320;2023-07-29T13:29:13;3.10;;;1.42;;
73487;SDS011;61721;42.206;25.320;2023-07-29T13:31:41;3.45;;;1.50;;
73487;SDS011;61721;42.206;25.320;2023-07-29T13:34:09;3.67;;;1.27;;
73487;SDS011;61721;42.206;25.320;2023-07-29T13:36:44;4.28;;;1.38;;
73487;SDS011;61721;42.206;25.320;2023-07-29T13:39:11;4.50;;;1.48;;
73487;SDS011;61721;42.206;25.320;2023-07-29T13:41:38;4.57;;;1.35;;
73487;SDS011;61721;42.206;25.320;2023-07-29T13:44:06;3.15;;;1.30;;
73487;SDS011;61721;42.206;25.320;2023-07-29T13:46:35;2.97;;;1.23;;
73487;SDS011;61721;42.206;25.320;2023-07-29T13:49:02;2.60;;;1.20;;
73487;SDS011;61721;42.206;25.320;2023-07-29T13:51:29;3.20;;;1.30;;
73487;SDS011;61721;42.206;25.320;2023-07-29T13:53:56;2.95;;;1.30;;
73487;SDS011;61721;42.206;25.320;2023-07-29T13:56:24;3.30;;;1.20;;
73487;SDS011;61721;42.206;25.320;2023-07-29T13:58:52;3.03;;;1.25;;
73487;SDS011;61721;42.206;25.320;2023-07-29T14:01:19;3.58;;;1.30;;
73487;SDS011;61721;42.206;25.320;2023-07-29T14:03:47;4.38;;;1.20;;
73487;SDS011;61721;42.206;25.320;2023-07-29T14:06:15;7.68;;;1.48;;
73487;SDS011;61721;42.206;25.320;2023-07-29T14:08:42;2.72;;;1.23;;
73487;SDS011;61721;42.206;25.320;2023-07-29T14:11:10;3.28;;;1.40;;
73487;SDS011;61721;42.206;25.320;2023-07-29T14:13:37;4.85;;;1.50;;
73487;SDS011;61721;42.206;25.320;2023-07-29T14:16:04;3.05;;;1.30;;
73487;SDS011;61721;42.206;25.320;2023-07-29T14:18:38;2.75;;;1.10;;
73487;SDS011;61721;42.206;25.320;2023-07-29T14:21:06;2.97;;;1.20;;
73487;SDS011;61721;42.206;25.320;2023-07-29T14:23:33;3.80;;;1.20;;
73487;SDS011;61721;42.206;25.320;2023-07-29T14:26:00;3.38;;;1.50;;
73487;SDS011;61721;42.206;25.320;2023-07-29T14:28:27;5.88;;;1.42;;
73487;SDS011;61721;42.206;25.320;2023-07-29T14:30:56;4.15;;;1.40;;
73487;SDS011;61721;42.206;25.320;2023-07-29T14:33:23;3.13;;;1.30;;
73487;SDS011;61721;42.206;25.320;2023-07-29T14:35:52;2.78;;;1.30;;
73487;SDS011;61721;42.206;25.320;2023-07-29T14:38:21;3.47;;;1.20;;
73487;SDS011;61721;42.206;25.320;2023-07-29T14:40:48;3.85;;;1.40;;
73487;SDS011;61721;42.206;25.320;2023-07-29T14:43:18;3.53;;;1.40;;
73487;SDS011;61721;42.206;25.320;2023-07-29T14:45:45;3.95;;;1.58;;
73487;SDS011;61721;42.206;25.320;2023-07-29T14:48:12;3.08;;;1.35;;
73487;SDS011;61721;42.206;25.320;2023-07-29T14:50:39;3.33;;;1.63;;
73487;SDS011;61721;42.206;25.320;2023-07-29T14:53:06;3.90;;;1.52;;
73487;SDS011;61721;42.206;25.320;2023-07-29T14:55:35;3.28;;;1.40;;
73487;SDS011;61721;42.206;25.320;2023-07-29T14:58:10;4.55;;;1.30;;
73487;SDS011;61721;42.206;25.320;2023-07-29T15:00:37;2.72;;;1.30;;
73487;SDS011;61721;42.206;25.320;2023-07-29T15:03:04;4.40;;;1.75;;
73487;SDS011;61721;42.206;25.320;2023-07-29T15:05:32;5.32;;;1.83;;